createdAt,value
2023-03-07T00:02:12.166Z,100.00
2023-03-07T00:05:15.006Z,100.00
2023-03-07T00:08:17.271Z,100.00
2023-03-07T00:11:19.795Z,100.00
2023-03-07T00:14:22.029Z,100.00
2023-03-07T00:17:24.237Z,100.00
2023-03-07T00:20:26.478Z,100.00
2023-03-07T00:23:28.973Z,100.00
2023-03-07T00:26:31.225Z,100.00
2023-03-07T00:29:33.393Z,100.00
2023-03-07T00:32:35.678Z,100.00
2023-03-07T00:35:37.883Z,100.00
2023-03-07T00:38:40.509Z,100.00
2023-03-07T00:41:42.712Z,100.00
2023-03-07T00:44:44.977Z,100.00
2023-03-07T00:47:47.183Z,100.00
2023-03-07T00:50:49.709Z,100.00
2023-03-07T00:53:52.462Z,100.00
2023-03-07T00:56:54.641Z,100.00
2023-03-07T00:59:56.838Z,100.00
2023-03-07T01:03:01.915Z,100.00
2023-03-07T01:06:13.832Z,100.00
2023-03-07T01:09:16.020Z,100.00
2023-03-07T01:12:18.181Z,100.00
2023-03-07T01:15:20.410Z,100.00
2023-03-07T01:18:22.686Z,100.00
2023-03-07T01:21:33.390Z,100.00
2023-03-07T01:24:35.582Z,100.00
2023-03-07T01:27:38.002Z,100.00
2023-03-07T01:30:40.688Z,100.00
2023-03-07T01:33:43.167Z,100.00
2023-03-07T01:36:45.581Z,100.00
2023-03-07T01:39:51.418Z,100.00
2023-03-07T01:42:53.595Z,100.00
2023-03-07T01:46:17.071Z,100.00
2023-03-07T01:49:22.714Z,100.00
2023-03-07T01:52:34.690Z,100.00
2023-03-07T01:55:37.292Z,100.00
2023-03-07T01:58:39.850Z,100.00
2023-03-07T02:01:42.072Z,100.00
2023-03-07T02:04:49.765Z,100.00
2023-03-07T02:07:52.949Z,100.00
2023-03-07T02:10:55.230Z,100.00
2023-03-07T02:13:57.407Z,100.00
2023-03-07T02:16:59.726Z,100.00
2023-03-07T02:20:07.999Z,100.00
2023-03-07T02:23:18.065Z,100.00
2023-03-07T02:26:30.927Z,100.00
2023-03-07T02:29:33.152Z,100.00
2023-03-07T02:32:35.332Z,100.00
2023-03-07T02:35:37.557Z,100.00
2023-03-07T02:38:42.343Z,100.00
2023-03-07T02:41:44.773Z,100.00
2023-03-07T02:44:47.728Z,100.00
2023-03-07T02:47:50.018Z,100.00
2023-03-07T02:50:52.208Z,100.00
2023-03-07T02:53:54.400Z,100.00
2023-03-07T02:56:56.701Z,100.00
2023-03-07T02:59:59.983Z,100.00
2023-03-07T03:03:02.157Z,100.00
2023-03-07T03:06:04.899Z,100.00
2023-03-07T03:09:07.060Z,100.00
2023-03-07T03:12:09.401Z,100.00
2023-03-07T03:15:12.114Z,100.00
2023-03-07T03:18:14.703Z,100.00
2023-03-07T03:21:16.934Z,100.00
2023-03-07T03:24:19.118Z,100.00
2023-03-07T03:27:21.285Z,100.00
2023-03-07T03:30:23.469Z,100.00
2023-03-07T03:33:27.463Z,100.00
2023-03-07T03:36:29.717Z,100.00
2023-03-07T03:39:31.912Z,100.00
2023-03-07T03:42:34.086Z,100.00
2023-03-07T03:45:36.321Z,100.00
2023-03-07T03:48:38.834Z,100.00
2023-03-07T03:51:41.114Z,100.00
2023-03-07T03:54:43.373Z,100.00
2023-03-07T03:57:45.516Z,100.00
2023-03-07T04:00:47.691Z,100.00
2023-03-07T04:03:51.474Z,100.00
2023-03-07T04:06:53.662Z,100.00
2023-03-07T04:09:55.832Z,100.00
2023-03-07T04:12:58.002Z,100.00
2023-03-07T04:16:00.264Z,100.00
2023-03-07T04:19:02.805Z,100.00
2023-03-07T04:22:05.021Z,100.00
2023-03-07T04:25:07.451Z,100.00
2023-03-07T04:28:09.679Z,100.00
2023-03-07T04:31:14.115Z,100.00
2023-03-07T04:34:16.313Z,100.00
2023-03-07T04:37:18.477Z,100.00
2023-03-07T04:40:20.762Z,100.00
2023-03-07T04:43:22.982Z,100.00
2023-03-07T04:46:25.419Z,100.00
2023-03-07T04:49:27.613Z,100.00
2023-03-07T04:52:29.768Z,100.00
2023-03-07T04:55:32.149Z,100.00
2023-03-07T04:58:34.492Z,100.00
2023-03-07T05:01:36.698Z,100.00
2023-03-07T05:04:38.934Z,100.00
2023-03-07T05:07:41.238Z,100.00
2023-03-07T05:10:43.692Z,100.00
2023-03-07T05:13:45.950Z,100.00
2023-03-07T05:16:48.147Z,100.00
2023-03-07T05:19:50.354Z,100.00
2023-03-07T05:22:52.744Z,100.00
2023-03-07T05:25:54.920Z,100.00
2023-03-07T05:28:57.083Z,100.00
2023-03-07T05:31:59.286Z,100.00
2023-03-07T05:35:01.498Z,100.00
2023-03-07T05:38:03.748Z,100.00
2023-03-07T05:41:05.934Z,100.00
2023-03-07T05:44:08.173Z,100.00
2023-03-07T05:47:10.370Z,100.00
2023-03-07T05:50:13.218Z,100.00
2023-03-07T05:53:15.379Z,100.00
2023-03-07T05:56:17.612Z,100.00
2023-03-07T05:59:19.981Z,100.00
2023-03-07T06:02:22.226Z,100.00
2023-03-07T06:05:25.532Z,100.00
2023-03-07T06:08:27.763Z,100.00
2023-03-07T06:11:30.002Z,100.00
2023-03-07T06:14:32.609Z,100.00
2023-03-07T06:17:35.292Z,100.00
2023-03-07T06:20:37.449Z,100.00
2023-03-07T06:23:39.647Z,100.00
2023-03-07T06:26:41.860Z,100.00
2023-03-07T06:29:44.137Z,100.00
2023-03-07T06:32:46.322Z,100.00
2023-03-07T06:35:48.588Z,100.00
2023-03-07T06:38:50.877Z,100.00
2023-03-07T06:41:53.384Z,100.00
2023-03-07T06:44:55.584Z,100.00
2023-03-07T06:47:57.881Z,100.00
2023-03-07T06:51:00.082Z,100.00
2023-03-07T06:54:02.307Z,100.00
2023-03-07T06:57:04.650Z,100.00
2023-03-07T07:00:07.557Z,100.00
2023-03-07T07:03:14.484Z,100.00
2023-03-07T07:06:16.738Z,100.00
2023-03-07T07:09:19.376Z,100.00
2023-03-07T07:12:21.632Z,100.00
2023-03-07T07:15:24.752Z,100.00
2023-03-07T07:18:26.962Z,100.00
2023-03-07T07:21:29.284Z,100.00
2023-03-07T07:24:31.447Z,100.00
2023-03-07T07:27:33.706Z,100.00
2023-03-07T07:30:35.925Z,100.00
2023-03-07T07:33:38.123Z,100.00
2023-03-07T07:36:40.318Z,100.00
2023-03-07T07:39:43.991Z,100.00
2023-03-07T07:42:54.282Z,100.00
2023-03-07T07:45:56.494Z,100.00
2023-03-07T07:48:58.697Z,100.00
2023-03-07T07:52:00.944Z,100.00
2023-03-07T07:55:03.234Z,100.00
2023-03-07T07:58:05.801Z,100.00
2023-03-07T08:01:17.778Z,100.00
2023-03-07T08:04:21.020Z,100.00
2023-03-07T08:07:23.203Z,100.00
2023-03-07T08:10:25.430Z,100.00
2023-03-07T08:13:28.496Z,100.00
2023-03-07T08:16:30.816Z,100.00
2023-03-07T08:19:33.140Z,100.00
2023-03-07T08:22:39.069Z,100.00
2023-03-07T08:25:41.726Z,100.00
2023-03-07T08:28:43.908Z,100.00
2023-03-07T08:31:46.624Z,100.00
2023-03-07T08:34:48.852Z,100.00
2023-03-07T08:37:54.842Z,100.00
2023-03-07T08:41:01.997Z,100.00
2023-03-07T08:44:04.358Z,100.00
2023-03-07T08:47:06.619Z,100.00
2023-03-07T08:50:09.334Z,100.00
2023-03-07T08:53:11.565Z,100.00
2023-03-07T08:56:16.711Z,100.00
2023-03-07T08:59:18.995Z,100.00
2023-03-07T09:02:21.268Z,100.00
2023-03-07T09:05:23.427Z,100.00
2023-03-07T09:08:25.592Z,100.00
2023-03-07T09:11:27.832Z,100.00
2023-03-07T09:14:30.050Z,100.00
2023-03-07T09:17:32.237Z,100.00
2023-03-07T09:20:34.575Z,100.00
2023-03-07T09:23:36.737Z,100.00
2023-03-07T09:26:38.883Z,100.00
2023-03-07T09:29:41.060Z,100.00
2023-03-07T09:32:43.336Z,100.00
2023-03-07T09:35:45.619Z,100.00
2023-03-07T09:38:48.155Z,100.00
2023-03-07T09:42:05.480Z,100.00
2023-03-07T09:45:19.775Z,100.00
2023-03-07T09:48:47.955Z,100.00
2023-03-07T09:51:52.501Z,100.00
2023-03-07T09:55:00.056Z,100.00
2023-03-07T09:58:16.231Z,100.00
2023-03-07T10:01:22.573Z,100.00
2023-03-07T10:05:04.322Z,100.00
2023-03-07T10:08:13.077Z,100.00
2023-03-07T10:11:23.256Z,100.00
2023-03-07T10:14:59.124Z,100.00
2023-03-07T10:18:30.423Z,100.00
2023-03-07T10:21:57.388Z,100.00
2023-03-07T10:25:11.422Z,100.00
2023-03-07T10:28:23.749Z,100.00
2023-03-07T10:31:30.946Z,100.00
2023-03-07T10:34:33.157Z,100.00
2023-03-07T10:37:44.019Z,100.00
2023-03-07T10:40:57.642Z,100.00
2023-03-07T10:43:59.924Z,100.00
2023-03-07T10:47:02.314Z,100.00
2023-03-07T10:50:26.964Z,100.00
2023-03-07T10:53:32.221Z,100.00
2023-03-07T10:56:34.525Z,100.00
2023-03-07T10:59:39.511Z,100.00
2023-03-07T11:02:45.921Z,92.58
2023-03-07T11:05:48.956Z,88.75
2023-03-07T11:08:51.169Z,82.66
2023-03-07T11:12:10.719Z,81.12
2023-03-07T11:15:21.713Z,80.83
2023-03-07T11:18:32.369Z,79.00
2023-03-07T11:21:35.456Z,79.47
2023-03-07T11:24:38.895Z,79.91
2023-03-07T11:27:53.586Z,80.75
2023-03-07T11:31:07.830Z,79.08
2023-03-07T11:34:16.183Z,80.15
2023-03-07T11:37:40.928Z,79.61
2023-03-07T11:41:00.115Z,78.67
2023-03-07T11:44:12.066Z,80.25
2023-03-07T11:47:30.223Z,80.33
2023-03-07T11:50:32.986Z,84.49
2023-03-07T11:53:35.091Z,78.47
2023-03-07T11:56:40.165Z,77.47
2023-03-07T11:59:48.510Z,76.90
2023-03-07T12:02:56.681Z,76.60
2023-03-07T12:06:10.348Z,77.92
2023-03-07T12:09:40.097Z,78.69
2023-03-07T12:12:51.134Z,77.35
2023-03-07T12:16:12.007Z,78.63
2023-03-07T12:19:31.187Z,80.35
2023-03-07T12:22:47.191Z,78.50
2023-03-07T12:25:52.287Z,78.90
2023-03-07T12:29:03.396Z,82.12
2023-03-07T12:32:19.321Z,81.76
2023-03-07T12:35:21.648Z,81.92
2023-03-07T12:38:36.680Z,89.95
2023-03-07T12:42:10.588Z,94.18
2023-03-07T12:45:21.957Z,96.38
2023-03-07T12:48:40.879Z,98.08
2023-03-07T12:51:49.527Z,98.31
2023-03-07T12:55:23.655Z,100.00
2023-03-07T12:58:41.193Z,100.00
2023-03-07T13:02:04.955Z,100.00
2023-03-07T13:05:07.243Z,100.00
2023-03-07T13:08:19.224Z,99.92
2023-03-07T13:11:23.945Z,99.63
2023-03-07T13:14:42.439Z,97.91
2023-03-07T13:17:44.634Z,92.39
2023-03-07T13:21:07.581Z,92.92
2023-03-07T13:24:28.508Z,94.56
2023-03-07T13:27:46.333Z,96.46
2023-03-07T13:31:11.584Z,94.47
2023-03-07T13:34:46.732Z,96.63
2023-03-07T13:37:54.194Z,96.89
2023-03-07T13:40:59.018Z,97.66
2023-03-07T13:44:02.120Z,98.47
2023-03-07T13:47:05.451Z,100.00
2023-03-07T13:50:35.658Z,100.00
2023-03-07T13:53:52.361Z,100.00
2023-03-07T13:56:55.269Z,100.00
2023-03-07T13:59:57.516Z,100.00
2023-03-07T14:02:59.966Z,100.00
2023-03-07T14:06:09.542Z,100.00
2023-03-07T14:09:15.315Z,100.00
2023-03-07T14:12:23.154Z,100.00
2023-03-07T14:15:49.138Z,100.00
2023-03-07T14:19:17.345Z,98.31
2023-03-07T14:22:29.764Z,100.00
2023-03-07T14:25:34.145Z,98.14
2023-03-07T14:28:36.302Z,99.28
2023-03-07T14:31:40.839Z,98.81
2023-03-07T14:34:49.110Z,99.00
2023-03-07T14:37:51.513Z,99.70
2023-03-07T14:41:04.719Z,100.00
2023-03-07T14:44:18.981Z,99.34
2023-03-07T14:47:34.745Z,99.45
2023-03-07T14:50:40.044Z,100.00
2023-03-07T14:53:43.167Z,100.00
2023-03-07T14:56:46.338Z,100.00
2023-03-07T15:00:10.153Z,100.00
2023-03-07T15:03:14.374Z,100.00
2023-03-07T15:06:19.709Z,100.00
2023-03-07T15:09:22.470Z,100.00
2023-03-07T15:12:27.234Z,100.00
2023-03-07T15:15:40.317Z,100.00
2023-03-07T15:18:53.457Z,100.00
2023-03-07T15:22:00.992Z,100.00
2023-03-07T15:25:04.365Z,100.00
2023-03-07T15:28:16.881Z,100.00
2023-03-07T15:31:22.731Z,100.00
2023-03-07T15:34:33.672Z,100.00
2023-03-07T15:37:50.349Z,100.00
2023-03-07T15:40:52.531Z,100.00
2023-03-07T15:44:27.132Z,100.00
2023-03-07T15:47:31.067Z,100.00
2023-03-07T15:50:33.385Z,100.00
2023-03-07T15:53:39.944Z,100.00
2023-03-07T15:56:42.908Z,100.00
2023-03-07T16:00:18.426Z,100.00
2023-03-07T16:03:23.985Z,100.00
2023-03-07T16:06:38.344Z,100.00
2023-03-07T16:09:40.541Z,100.00
2023-03-07T16:12:46.424Z,100.00
2023-03-07T16:16:20.376Z,100.00
2023-03-07T16:19:22.636Z,100.00
2023-03-07T16:22:25.200Z,100.00
2023-03-07T16:25:29.755Z,100.00
2023-03-07T16:28:32.294Z,100.00
2023-03-07T16:31:34.534Z,100.00
2023-03-07T16:34:36.764Z,100.00
2023-03-07T16:37:39.216Z,100.00
2023-03-07T16:40:43.819Z,100.00
2023-03-07T16:43:47.846Z,100.00
2023-03-07T16:46:55.188Z,100.00
2023-03-07T16:49:59.004Z,100.00
2023-03-07T16:53:01.506Z,100.00
2023-03-07T16:56:03.951Z,100.00
2023-03-07T16:59:08.272Z,100.00
2023-03-07T17:02:21.304Z,100.00
2023-03-07T17:05:28.430Z,100.00
2023-03-07T17:08:30.634Z,100.00
2023-03-07T17:11:33.503Z,100.00
2023-03-07T17:14:35.721Z,100.00
2023-03-07T17:17:38.292Z,100.00
2023-03-07T17:20:41.061Z,100.00
2023-03-07T17:23:45.059Z,100.00
2023-03-07T17:26:48.544Z,100.00
2023-03-07T17:29:54.352Z,100.00
2023-03-07T17:32:57.077Z,100.00
2023-03-07T17:36:00.941Z,100.00
2023-03-07T17:39:03.340Z,100.00
2023-03-07T17:42:06.050Z,100.00
2023-03-07T17:45:10.732Z,100.00
2023-03-07T17:48:13.593Z,100.00
2023-03-07T17:51:15.855Z,100.00
2023-03-07T17:54:18.822Z,100.00
2023-03-07T17:57:21.099Z,100.00
2023-03-07T18:00:23.965Z,100.00
2023-03-07T18:03:26.344Z,100.00
2023-03-07T18:06:28.748Z,100.00
2023-03-07T18:09:32.129Z,100.00
2023-03-07T18:12:34.770Z,100.00
2023-03-07T18:15:37.310Z,100.00
2023-03-07T18:18:50.589Z,100.00
2023-03-07T18:22:00.488Z,100.00
2023-03-07T18:25:03.180Z,100.00
2023-03-07T18:28:05.379Z,100.00
2023-03-07T18:31:13.209Z,100.00
2023-03-07T18:34:16.785Z,100.00
2023-03-07T18:37:19.866Z,100.00
2023-03-07T18:40:24.790Z,100.00
2023-03-07T18:43:27.302Z,100.00
2023-03-07T18:46:32.090Z,100.00
2023-03-07T18:49:34.714Z,100.00
2023-03-07T18:52:37.219Z,100.00
2023-03-07T18:55:39.737Z,100.00
2023-03-07T18:58:43.353Z,100.00
2023-03-07T19:01:50.354Z,100.00
2023-03-07T19:04:54.209Z,100.00
2023-03-07T19:07:56.706Z,100.00
2023-03-07T19:11:02.594Z,100.00
2023-03-07T19:14:05.155Z,100.00
2023-03-07T19:17:07.678Z,100.00
2023-03-07T19:20:10.811Z,100.00
2023-03-07T19:23:14.386Z,100.00
2023-03-07T19:26:18.371Z,100.00
2023-03-07T19:29:20.826Z,100.00
2023-03-07T19:32:23.127Z,100.00
2023-03-07T19:35:25.356Z,100.00
2023-03-07T19:38:28.553Z,100.00
2023-03-07T19:41:37.222Z,100.00
2023-03-07T19:44:39.787Z,100.00
2023-03-07T19:47:42.242Z,100.00
2023-03-07T19:50:44.676Z,100.00
2023-03-07T19:53:50.505Z,100.00
2023-03-07T19:56:53.224Z,100.00
2023-03-07T19:59:56.438Z,100.00
2023-03-07T20:03:00.211Z,100.00
2023-03-07T20:06:03.727Z,100.00
2023-03-07T20:09:06.232Z,100.00
2023-03-07T20:12:10.201Z,100.00
2023-03-07T20:15:12.930Z,100.00
2023-03-07T20:18:15.435Z,100.00
2023-03-07T20:21:19.469Z,100.00
2023-03-07T20:24:21.943Z,100.00
2023-03-07T20:27:25.347Z,100.00
2023-03-07T20:30:27.817Z,100.00
2023-03-07T20:33:30.434Z,100.00
2023-03-07T20:36:34.825Z,100.00
2023-03-07T20:39:39.143Z,100.00
2023-03-07T20:42:42.261Z,100.00
2023-03-07T20:45:44.728Z,100.00
2023-03-07T20:48:48.536Z,100.00
2023-03-07T20:51:51.054Z,100.00
2023-03-07T20:54:53.282Z,100.00
2023-03-07T20:57:55.720Z,100.00
2023-03-07T21:00:58.890Z,100.00
2023-03-07T21:04:06.330Z,100.00
2023-03-07T21:07:08.856Z,100.00
2023-03-07T21:10:11.988Z,100.00
2023-03-07T21:13:15.762Z,100.00
2023-03-07T21:16:21.707Z,100.00
2023-03-07T21:19:24.149Z,100.00
2023-03-07T21:22:26.593Z,100.00
2023-03-07T21:25:29.598Z,100.00
2023-03-07T21:28:33.727Z,100.00
2023-03-07T21:31:36.762Z,100.00
2023-03-07T21:34:39.231Z,100.00
2023-03-07T21:37:41.764Z,100.00
2023-03-07T21:40:43.998Z,100.00
2023-03-07T21:43:46.382Z,100.00
2023-03-07T21:46:48.934Z,100.00
2023-03-07T21:49:51.517Z,100.00
2023-03-07T21:52:53.895Z,100.00
2023-03-07T21:56:01.631Z,100.00
2023-03-07T21:59:03.809Z,100.00
2023-03-07T22:02:06.499Z,100.00
2023-03-07T22:05:09.682Z,100.00
2023-03-07T22:08:12.593Z,100.00
2023-03-07T22:11:14.866Z,100.00
2023-03-07T22:14:17.065Z,100.00
2023-03-07T22:17:19.283Z,100.00
2023-03-07T22:20:21.653Z,100.00
2023-03-07T22:23:26.551Z,100.00
2023-03-07T22:26:29.948Z,100.00
2023-03-07T22:29:32.241Z,100.00
2023-03-07T22:32:34.509Z,100.00
2023-03-07T22:35:36.883Z,100.00
2023-03-07T22:38:39.751Z,100.00
2023-03-07T22:41:42.244Z,100.00
2023-03-07T22:44:44.412Z,100.00
2023-03-07T22:47:46.623Z,100.00
2023-03-07T22:50:48.861Z,100.00
2023-03-07T22:53:51.063Z,100.00
2023-03-07T22:56:53.213Z,100.00
2023-03-07T22:59:55.400Z,100.00
2023-03-07T23:02:57.662Z,100.00
2023-03-07T23:06:00.273Z,100.00
2023-03-07T23:09:03.919Z,100.00
2023-03-07T23:12:06.606Z,100.00
2023-03-07T23:15:09.021Z,100.00
2023-03-07T23:18:11.253Z,100.00
2023-03-07T23:21:15.464Z,100.00
2023-03-07T23:24:17.643Z,100.00
2023-03-07T23:27:19.843Z,100.00
2023-03-07T23:30:22.140Z,100.00
2023-03-07T23:33:24.477Z,100.00
2023-03-07T23:36:28.958Z,100.00
2023-03-07T23:39:31.144Z,100.00
2023-03-07T23:42:33.366Z,100.00
2023-03-07T23:45:35.546Z,100.00
2023-03-07T23:48:37.723Z,100.00
2023-03-07T23:51:39.971Z,100.00
2023-03-07T23:54:45.082Z,100.00
2023-03-07T23:57:48.256Z,100.00
